createdAt,value
2023-01-20T00:01:49.321Z,84.77
2023-01-20T00:04:19.638Z,85.22
2023-01-20T00:06:48.708Z,84.20
2023-01-20T00:09:19.165Z,83.85
2023-01-20T00:11:48.068Z,83.69
2023-01-20T00:14:17.023Z,83.06
2023-01-20T00:16:46.036Z,83.81
2023-01-20T00:19:15.576Z,82.64
2023-01-20T00:21:44.544Z,81.81
2023-01-20T00:24:13.333Z,81.76
2023-01-20T00:26:42.410Z,81.93
2023-01-20T00:29:11.421Z,82.15
2023-01-20T00:31:40.544Z,82.20
2023-01-20T00:34:11.773Z,84.08
2023-01-20T00:36:40.635Z,83.25
2023-01-20T00:39:09.732Z,82.67
2023-01-20T00:41:38.823Z,82.74
2023-01-20T00:44:08.567Z,82.86
2023-01-20T00:46:37.896Z,83.12
2023-01-20T00:49:06.842Z,83.18
2023-01-20T00:51:35.834Z,83.77
2023-01-20T00:54:05.228Z,83.75
2023-01-20T00:56:34.147Z,84.15
2023-01-20T00:59:03.112Z,85.38
2023-01-20T01:01:32.241Z,85.48
2023-01-20T01:04:01.414Z,85.94
2023-01-20T01:06:30.269Z,86.75
2023-01-20T01:08:59.198Z,86.48
2023-01-20T01:11:28.189Z,86.20
2023-01-20T01:13:57.900Z,87.61
2023-01-20T01:16:26.868Z,89.23
2023-01-20T01:18:56.084Z,89.21
2023-01-20T01:21:24.981Z,88.47
2023-01-20T01:23:54.191Z,89.19
2023-01-20T01:26:23.386Z,89.30
2023-01-20T01:28:52.478Z,90.37
2023-01-20T01:31:22.528Z,89.85
2023-01-20T01:33:51.596Z,91.00
2023-01-20T01:36:20.506Z,89.07
2023-01-20T01:38:57.894Z,90.32
2023-01-20T01:41:28.410Z,91.30
2023-01-20T01:44:12.234Z,92.86
2023-01-20T01:46:42.949Z,92.95
2023-01-20T01:49:29.407Z,94.59
2023-01-20T01:52:09.885Z,94.00
2023-01-20T01:54:46.014Z,95.74
2023-01-20T01:57:15.199Z,96.58
2023-01-20T01:59:44.503Z,97.18
2023-01-20T02:02:13.427Z,96.32
2023-01-20T02:04:44.132Z,97.60
2023-01-20T02:07:16.825Z,97.74
2023-01-20T02:09:45.809Z,97.30
2023-01-20T02:12:20.235Z,96.49
2023-01-20T02:14:58.538Z,95.39
2023-01-20T02:18:01.637Z,95.33
2023-01-20T02:21:19.699Z,93.97
2023-01-20T02:24:13.252Z,93.06
2023-01-20T02:27:11.634Z,93.21
2023-01-20T02:30:35.108Z,93.34
2023-01-20T02:33:16.176Z,93.92
2023-01-20T02:35:57.062Z,94.19
2023-01-20T02:38:45.304Z,93.49
2023-01-20T02:41:43.882Z,93.00
2023-01-20T02:44:33.662Z,92.57
2023-01-20T02:47:52.595Z,92.20
2023-01-20T02:50:44.059Z,92.83
2023-01-20T02:53:14.898Z,93.07
2023-01-20T02:55:53.753Z,92.88
2023-01-20T02:58:34.070Z,92.49
2023-01-20T03:01:13.093Z,93.27
2023-01-20T03:03:46.884Z,93.77
2023-01-20T03:06:23.072Z,94.33
2023-01-20T03:08:53.841Z,95.15
2023-01-20T03:11:23.161Z,95.96
2023-01-20T03:14:01.865Z,96.31
2023-01-20T03:16:31.255Z,97.97
2023-01-20T03:19:00.959Z,99.87
2023-01-20T03:21:30.059Z,99.68
2023-01-20T03:24:03.581Z,99.00
2023-01-20T03:26:34.093Z,99.49
2023-01-20T03:29:09.489Z,99.59
2023-01-20T03:31:48.577Z,99.74
2023-01-20T03:34:22.329Z,99.05
2023-01-20T03:36:53.886Z,97.92
2023-01-20T03:39:24.949Z,98.40
2023-01-20T03:42:25.557Z,98.58
2023-01-20T03:45:08.625Z,98.42
2023-01-20T03:47:46.411Z,99.16
2023-01-20T03:50:50.633Z,99.72
2023-01-20T03:53:42.254Z,99.80
2023-01-20T03:56:22.007Z,98.74
2023-01-20T03:58:54.498Z,98.24
2023-01-20T04:01:32.499Z,97.80
2023-01-20T04:04:03.804Z,96.98
2023-01-20T04:06:35.343Z,97.31
2023-01-20T04:09:13.098Z,97.32
2023-01-20T04:11:42.180Z,97.09
2023-01-20T04:14:11.490Z,96.51
2023-01-20T04:16:40.481Z,95.88
2023-01-20T04:19:09.385Z,95.64
2023-01-20T04:22:19.014Z,95.48
2023-01-20T04:25:08.700Z,96.76
2023-01-20T04:27:37.582Z,97.77
2023-01-20T04:30:08.215Z,97.04
2023-01-20T04:32:37.002Z,96.89
2023-01-20T04:35:06.249Z,97.10
2023-01-20T04:37:35.206Z,97.41
2023-01-20T04:40:05.311Z,96.86
2023-01-20T04:42:34.215Z,96.30
2023-01-20T04:45:04.709Z,95.80
2023-01-20T04:47:34.141Z,95.98
2023-01-20T04:50:03.038Z,97.10
2023-01-20T04:52:32.137Z,97.25
2023-01-20T04:55:01.120Z,97.34
2023-01-20T04:57:30.318Z,97.36
2023-01-20T04:59:59.413Z,96.74
2023-01-20T05:02:28.286Z,97.17
2023-01-20T05:04:57.313Z,96.14
2023-01-20T05:07:26.075Z,97.93
2023-01-20T05:09:54.886Z,97.96
2023-01-20T05:12:23.903Z,97.57
2023-01-20T05:14:53.080Z,98.14
2023-01-20T05:17:22.099Z,97.59
2023-01-20T05:19:51.550Z,97.70
2023-01-20T05:22:20.325Z,97.12
2023-01-20T05:24:49.011Z,96.25
2023-01-20T05:27:17.885Z,96.44
2023-01-20T05:29:46.765Z,96.29
2023-01-20T05:32:15.484Z,96.22
2023-01-20T05:34:44.292Z,96.79
2023-01-20T05:37:13.129Z,96.71
2023-01-20T05:39:41.929Z,96.83
2023-01-20T05:42:10.805Z,96.43
2023-01-20T05:44:39.700Z,96.66
2023-01-20T05:47:08.558Z,96.97
2023-01-20T05:49:37.288Z,97.46
2023-01-20T05:52:06.032Z,97.21
2023-01-20T05:54:34.819Z,97.27
2023-01-20T05:57:05.622Z,97.77
2023-01-20T05:59:34.436Z,97.92
2023-01-20T06:02:03.596Z,97.81
2023-01-20T06:04:32.388Z,97.99
2023-01-20T06:07:01.255Z,97.78
2023-01-20T06:09:30.001Z,97.55
2023-01-20T06:11:58.723Z,97.40
2023-01-20T06:14:27.493Z,97.02
2023-01-20T06:16:56.320Z,96.63
2023-01-20T06:19:26.582Z,96.25
2023-01-20T06:21:55.358Z,95.73
2023-01-20T06:24:24.184Z,95.13
2023-01-20T06:26:53.305Z,94.83
2023-01-20T06:29:22.457Z,94.55
2023-01-20T06:31:51.291Z,93.99
2023-01-20T06:34:20.041Z,93.28
2023-01-20T06:36:48.775Z,92.87
2023-01-20T06:39:17.485Z,92.42
2023-01-20T06:41:46.639Z,91.99
2023-01-20T06:44:15.830Z,91.79
2023-01-20T06:46:46.708Z,91.76
2023-01-20T06:49:16.979Z,92.05
2023-01-20T06:51:48.144Z,92.27
2023-01-20T06:54:17.338Z,92.49
2023-01-20T06:56:46.445Z,93.00
2023-01-20T06:59:15.212Z,92.86
2023-01-20T07:01:44.089Z,92.92
2023-01-20T07:04:14.709Z,93.23
2023-01-20T07:06:43.627Z,92.94
2023-01-20T07:09:13.879Z,93.36
2023-01-20T07:11:42.629Z,93.92
2023-01-20T07:14:11.481Z,93.59
2023-01-20T07:16:40.560Z,93.56
2023-01-20T07:19:09.537Z,93.29
2023-01-20T07:21:38.904Z,92.61
2023-01-20T07:24:10.260Z,92.45
2023-01-20T07:26:39.239Z,92.16
2023-01-20T07:29:08.246Z,91.77
2023-01-20T07:31:37.562Z,91.98
2023-01-20T07:34:06.410Z,91.28
2023-01-20T07:36:35.396Z,91.46
2023-01-20T07:39:04.440Z,91.88
2023-01-20T07:41:33.614Z,91.70
2023-01-20T07:44:03.487Z,91.41
2023-01-20T07:46:32.595Z,91.24
2023-01-20T07:49:01.547Z,90.95
2023-01-20T07:51:30.523Z,90.43
2023-01-20T07:53:59.540Z,90.22
2023-01-20T07:56:29.915Z,90.07
2023-01-20T07:58:59.040Z,89.83
2023-01-20T08:01:31.090Z,89.29
2023-01-20T08:04:00.858Z,88.78
2023-01-20T08:06:30.757Z,88.26
2023-01-20T08:09:03.414Z,87.28
2023-01-20T08:11:35.535Z,87.05
2023-01-20T08:14:05.233Z,86.72
2023-01-20T08:16:34.296Z,86.89
2023-01-20T08:19:03.406Z,86.47
2023-01-20T08:21:33.156Z,85.66
2023-01-20T08:24:06.843Z,85.53
2023-01-20T08:26:36.043Z,85.58
2023-01-20T08:29:08.990Z,85.19
2023-01-20T08:31:38.544Z,84.72
2023-01-20T08:34:07.742Z,84.64
2023-01-20T08:36:40.103Z,83.70
2023-01-20T08:39:14.932Z,82.64
2023-01-20T08:41:45.201Z,82.19
2023-01-20T08:44:15.413Z,82.04
2023-01-20T08:46:45.618Z,81.33
2023-01-20T08:49:17.830Z,81.19
2023-01-20T08:51:46.758Z,80.99
2023-01-20T08:54:16.090Z,80.11
2023-01-20T08:56:45.027Z,79.77
2023-01-20T08:59:14.064Z,79.49
2023-01-20T09:01:44.081Z,79.79
2023-01-20T09:04:13.156Z,79.45
2023-01-20T09:06:50.472Z,78.95
2023-01-20T09:09:22.559Z,78.50
2023-01-20T09:11:51.608Z,78.30
2023-01-20T09:14:24.468Z,78.40
2023-01-20T09:16:53.500Z,78.82
2023-01-20T09:19:22.588Z,79.28
2023-01-20T09:21:52.415Z,79.45
2023-01-20T09:24:21.602Z,79.12
2023-01-20T09:26:50.809Z,79.29
2023-01-20T09:29:21.258Z,79.27
2023-01-20T09:31:50.936Z,79.23
2023-01-20T09:34:24.861Z,78.40
2023-01-20T09:37:19.815Z,78.30
2023-01-20T09:40:08.251Z,78.00
2023-01-20T09:43:46.331Z,77.66
2023-01-20T09:47:07.569Z,77.64
2023-01-20T09:50:41.712Z,77.01
2023-01-20T09:53:33.062Z,76.66
2023-01-20T09:56:16.765Z,76.25
2023-01-20T09:58:57.520Z,75.75
2023-01-20T10:01:45.583Z,75.52
2023-01-20T10:04:59.405Z,74.68
2023-01-20T10:07:45.159Z,74.31
2023-01-20T10:10:25.515Z,73.85
2023-01-20T10:13:26.906Z,73.59
2023-01-20T10:15:57.519Z,73.78
2023-01-20T10:19:13.295Z,73.70
2023-01-20T10:21:54.216Z,73.75
2023-01-20T10:24:41.573Z,73.58
2023-01-20T10:27:10.346Z,73.10
2023-01-20T10:29:54.421Z,72.34
2023-01-20T10:32:38.810Z,72.10
2023-01-20T10:35:24.657Z,71.96
2023-01-20T10:37:55.980Z,71.77
2023-01-20T10:41:16.705Z,71.34
2023-01-20T10:43:48.441Z,70.73
2023-01-20T10:46:43.269Z,70.36
2023-01-20T10:49:52.824Z,68.44
2023-01-20T10:53:02.676Z,67.27
2023-01-20T10:55:41.645Z,65.70
2023-01-20T10:58:45.569Z,64.48
2023-01-20T11:01:19.232Z,63.81
2023-01-20T11:03:49.619Z,63.21
2023-01-20T11:06:27.487Z,62.41
2023-01-20T11:08:57.378Z,62.12
2023-01-20T11:11:27.002Z,62.18
2023-01-20T11:13:57.779Z,60.98
2023-01-20T11:16:31.800Z,62.09
2023-01-20T11:19:07.739Z,63.46
2023-01-20T11:21:38.119Z,64.09
2023-01-20T11:24:36.059Z,63.67
2023-01-20T11:27:11.312Z,64.38
2023-01-20T11:29:47.234Z,65.33
2023-01-20T11:32:37.967Z,65.53
2023-01-20T11:35:26.427Z,65.46
2023-01-20T11:37:55.333Z,64.68
2023-01-20T11:40:28.194Z,63.97
2023-01-20T11:42:56.743Z,63.08
2023-01-20T11:45:35.762Z,62.84
2023-01-20T11:48:16.069Z,62.79
2023-01-20T11:51:01.582Z,62.38
2023-01-20T11:53:33.385Z,62.48
2023-01-20T11:56:26.643Z,62.59
2023-01-20T11:59:03.823Z,62.34
2023-01-20T12:01:58.258Z,62.49
2023-01-20T12:04:32.798Z,62.56
2023-01-20T12:07:11.481Z,61.97
2023-01-20T12:09:54.657Z,62.17
2023-01-20T12:12:38.745Z,62.30
2023-01-20T12:15:22.785Z,62.11
2023-01-20T12:18:09.714Z,61.32
2023-01-20T12:21:01.999Z,62.07
2023-01-20T12:23:50.654Z,61.14
2023-01-20T12:26:22.384Z,60.86
2023-01-20T12:29:23.959Z,59.17
2023-01-20T12:31:54.722Z,58.54
2023-01-20T12:34:32.981Z,58.53
2023-01-20T12:37:10.270Z,58.11
2023-01-20T12:40:11.455Z,57.72
2023-01-20T12:43:27.458Z,58.49
2023-01-20T12:46:11.417Z,58.03
2023-01-20T12:48:55.834Z,58.47
2023-01-20T12:51:52.630Z,58.00
2023-01-20T12:54:47.384Z,56.80
2023-01-20T12:57:53.137Z,56.75
2023-01-20T13:01:23.543Z,57.93
2023-01-20T13:04:56.886Z,57.92
2023-01-20T13:08:08.846Z,59.03
2023-01-20T13:11:19.132Z,61.02
2023-01-20T13:14:21.913Z,60.44
2023-01-20T13:17:15.049Z,59.71
2023-01-20T13:19:49.652Z,60.84
2023-01-20T13:22:21.816Z,61.24
2023-01-20T13:24:57.513Z,61.56
2023-01-20T13:27:36.104Z,62.32
2023-01-20T13:30:10.338Z,63.27
2023-01-20T13:32:48.574Z,63.26
2023-01-20T13:35:25.847Z,63.69
2023-01-20T13:38:03.068Z,64.01
2023-01-20T13:40:37.788Z,64.11
2023-01-20T13:43:25.883Z,64.64
2023-01-20T13:46:03.867Z,64.75
2023-01-20T13:48:35.720Z,65.19
2023-01-20T13:51:19.582Z,65.03
2023-01-20T13:53:48.686Z,65.18
2023-01-20T13:56:45.210Z,65.50
2023-01-20T13:59:14.154Z,65.71
2023-01-20T14:01:43.249Z,66.05
2023-01-20T14:04:20.570Z,66.22
2023-01-20T14:06:52.878Z,66.05
2023-01-20T14:09:26.851Z,66.22
2023-01-20T14:11:58.212Z,66.48
2023-01-20T14:14:27.693Z,66.47
2023-01-20T14:16:56.992Z,64.57
2023-01-20T14:19:35.374Z,67.50
2023-01-20T14:22:27.918Z,69.06
2023-01-20T14:25:00.287Z,70.78
2023-01-20T14:27:35.572Z,72.37
2023-01-20T14:30:25.950Z,74.16
2023-01-20T14:32:54.873Z,75.51
2023-01-20T14:35:31.683Z,76.10
2023-01-20T14:38:02.390Z,76.13
2023-01-20T14:40:35.777Z,77.87
2023-01-20T14:43:22.093Z,79.14
2023-01-20T14:45:52.951Z,80.16
2023-01-20T14:48:34.027Z,80.97
2023-01-20T14:51:06.063Z,81.42
2023-01-20T14:53:35.066Z,81.83
2023-01-20T14:56:08.037Z,82.08
2023-01-20T14:58:44.220Z,82.85
2023-01-20T15:01:25.490Z,83.88
2023-01-20T15:04:01.062Z,84.58
2023-01-20T15:06:30.116Z,85.49
2023-01-20T15:09:06.707Z,86.07
2023-01-20T15:11:36.741Z,86.65
2023-01-20T15:14:09.229Z,86.73
2023-01-20T15:16:43.364Z,87.34
2023-01-20T15:19:20.038Z,87.61
2023-01-20T15:21:58.332Z,87.68
2023-01-20T15:24:41.803Z,87.82
2023-01-20T15:27:33.875Z,87.63
2023-01-20T15:30:21.710Z,88.16
2023-01-20T15:32:52.331Z,87.52
2023-01-20T15:35:26.262Z,86.99
2023-01-20T15:37:55.582Z,86.67
2023-01-20T15:40:25.555Z,86.69
2023-01-20T15:42:57.188Z,86.73
2023-01-20T15:45:26.696Z,86.78
2023-01-20T15:47:56.471Z,85.93
2023-01-20T15:50:26.919Z,85.80
2023-01-20T15:52:55.744Z,85.51
2023-01-20T15:55:24.511Z,85.24
2023-01-20T15:57:53.444Z,85.19
2023-01-20T16:00:24.492Z,85.24
2023-01-20T16:02:53.648Z,85.89
2023-01-20T16:05:22.726Z,85.91
2023-01-20T16:07:51.580Z,86.36
2023-01-20T16:10:20.380Z,86.63
2023-01-20T16:12:49.937Z,86.78
2023-01-20T16:15:19.126Z,87.40
2023-01-20T16:17:47.940Z,87.20
2023-01-20T16:20:23.438Z,87.37
2023-01-20T16:22:53.153Z,87.82
2023-01-20T16:25:21.985Z,87.32
2023-01-20T16:27:51.146Z,86.84
2023-01-20T16:30:22.412Z,86.72
2023-01-20T16:32:51.849Z,86.62
2023-01-20T16:35:23.822Z,86.83
2023-01-20T16:37:53.058Z,88.46
2023-01-20T16:40:22.437Z,87.77
2023-01-20T16:42:56.178Z,87.41
2023-01-20T16:45:29.076Z,89.06
2023-01-20T16:47:58.046Z,89.11
2023-01-20T16:50:28.628Z,87.95
2023-01-20T16:52:57.615Z,90.52
2023-01-20T16:55:26.542Z,91.51
2023-01-20T16:57:55.449Z,88.98
2023-01-20T17:00:24.260Z,88.72
2023-01-20T17:02:53.907Z,87.91
2023-01-20T17:05:22.975Z,87.81
2023-01-20T17:07:54.407Z,89.11
2023-01-20T17:10:24.605Z,91.96
2023-01-20T17:12:54.475Z,92.93
2023-01-20T17:15:24.723Z,92.74
2023-01-20T17:17:58.442Z,92.51
2023-01-20T17:20:27.879Z,93.64
2023-01-20T17:22:57.301Z,94.20
2023-01-20T17:25:26.305Z,92.43
2023-01-20T17:27:55.279Z,91.16
2023-01-20T17:30:26.305Z,92.19
2023-01-20T17:32:55.945Z,95.99
2023-01-20T17:35:24.959Z,93.40
2023-01-20T17:37:54.006Z,91.97
2023-01-20T17:40:23.075Z,92.33
2023-01-20T17:42:54.904Z,92.79
2023-01-20T17:45:24.481Z,93.71
2023-01-20T17:47:53.771Z,94.05
2023-01-20T17:50:22.888Z,94.16
2023-01-20T17:52:51.776Z,95.07
2023-01-20T17:55:20.672Z,95.52
2023-01-20T17:57:52.669Z,96.18
2023-01-20T18:00:22.131Z,96.67
2023-01-20T18:02:51.109Z,97.51
2023-01-20T18:05:20.231Z,97.09
2023-01-20T18:07:52.009Z,96.40
2023-01-20T18:10:20.764Z,96.42
2023-01-20T18:12:49.519Z,96.69
2023-01-20T18:15:18.538Z,96.90
2023-01-20T18:17:47.606Z,96.93
2023-01-20T18:20:18.312Z,96.95
2023-01-20T18:22:50.496Z,96.73
2023-01-20T18:25:19.333Z,96.56
2023-01-20T18:27:48.281Z,97.12
2023-01-20T18:30:18.032Z,98.17
2023-01-20T18:32:47.022Z,98.16
2023-01-20T18:35:15.920Z,97.72
2023-01-20T18:37:44.918Z,97.57
2023-01-20T18:40:16.645Z,97.49
2023-01-20T18:42:51.812Z,99.57
2023-01-20T18:45:21.118Z,99.38
2023-01-20T18:47:50.740Z,97.73
2023-01-20T18:50:20.331Z,97.31
2023-01-20T18:52:49.425Z,97.94
2023-01-20T18:55:18.331Z,99.86
2023-01-20T19:04:12.459Z,96.78
2023-01-20T19:07:21.528Z,96.82
2023-01-20T19:09:49.234Z,96.95
2023-01-20T19:12:17.052Z,96.91
2023-01-20T19:14:44.608Z,96.86
2023-01-20T19:17:12.976Z,97.00
2023-01-20T19:19:45.613Z,97.36
2023-01-20T19:22:13.294Z,97.52
2023-01-20T19:24:40.936Z,97.87
2023-01-20T19:27:08.516Z,98.33
2023-01-20T19:29:35.844Z,98.60
2023-01-20T19:32:04.018Z,99.27
2023-01-20T19:34:38.747Z,99.42
2023-01-20T19:37:07.573Z,99.47
2023-01-20T19:39:36.546Z,99.92
2023-01-20T19:42:04.213Z,99.52
2023-01-20T19:44:31.986Z,99.42
2023-01-20T19:47:03.687Z,99.48
2023-01-20T19:49:31.182Z,99.68
2023-01-20T19:51:59.505Z,100.00
2023-01-20T19:54:28.953Z,100.00
2023-01-20T19:57:00.840Z,99.88
2023-01-20T19:59:29.689Z,99.70
2023-01-20T20:01:57.636Z,99.70
2023-01-20T20:04:27.494Z,99.60
2023-01-20T20:06:55.181Z,99.68
2023-01-20T20:09:25.605Z,99.67
2023-01-20T20:11:53.685Z,99.93
2023-01-20T20:14:26.827Z,100.00
2023-01-20T20:16:54.127Z,99.74
2023-01-20T20:19:21.969Z,99.73
2023-01-20T20:21:58.753Z,98.84
2023-01-20T20:24:26.399Z,98.89
2023-01-20T20:26:57.133Z,98.16
2023-01-20T20:29:24.717Z,98.41
2023-01-20T20:31:52.631Z,98.13
2023-01-20T20:34:20.160Z,98.08
2023-01-20T20:36:47.935Z,98.34
2023-01-20T20:39:17.819Z,98.70
2023-01-20T20:41:47.139Z,98.77
2023-01-20T20:44:17.882Z,99.95
2023-01-20T20:46:45.898Z,100.00
2023-01-20T20:49:18.561Z,100.00
2023-01-20T20:51:47.312Z,100.00
2023-01-20T20:54:16.639Z,100.00
2023-01-20T20:56:58.905Z,98.68
2023-01-20T20:59:30.899Z,98.64
2023-01-20T21:01:58.868Z,100.00
2023-01-20T21:04:26.538Z,99.49
2023-01-20T21:06:54.079Z,99.79
2023-01-20T21:09:21.527Z,100.00
2023-01-20T21:11:49.108Z,99.14
2023-01-20T21:14:18.584Z,97.94
2023-01-20T21:16:46.167Z,98.15
2023-01-20T21:19:13.500Z,97.74
2023-01-20T21:21:41.311Z,95.97
2023-01-20T21:24:10.591Z,95.53
2023-01-20T21:26:38.260Z,95.74
2023-01-20T21:29:05.917Z,95.63
2023-01-20T21:31:34.211Z,95.29
2023-01-20T21:34:01.949Z,94.37
2023-01-20T21:36:34.090Z,95.30
2023-01-20T21:39:01.828Z,96.01
2023-01-20T21:41:29.856Z,98.56
2023-01-20T21:44:15.952Z,98.64
2023-01-20T21:46:43.775Z,98.44
2023-01-20T21:49:30.143Z,99.94
2023-01-20T21:52:16.018Z,99.33
2023-01-20T21:54:44.590Z,99.44
2023-01-20T21:57:12.784Z,99.80
2023-01-20T21:59:41.053Z,99.72
2023-01-20T22:02:13.004Z,98.87
2023-01-20T22:04:41.294Z,100.00
2023-01-20T22:07:09.985Z,100.00
2023-01-20T22:09:38.036Z,100.00
2023-01-20T22:12:06.745Z,100.00
2023-01-20T22:14:34.389Z,100.00
2023-01-20T22:17:02.238Z,100.00
2023-01-20T22:19:29.712Z,100.00
2023-01-20T22:21:57.994Z,100.00
2023-01-20T22:24:25.780Z,100.00
2023-01-20T22:26:53.525Z,100.00
2023-01-20T22:29:21.704Z,100.00
2023-01-20T22:31:53.894Z,100.00
2023-01-20T22:34:21.940Z,100.00
2023-01-20T22:36:49.495Z,100.00
2023-01-20T22:39:17.164Z,100.00
2023-01-20T22:41:44.729Z,99.92
2023-01-20T22:44:12.391Z,99.94
2023-01-20T22:46:40.359Z,99.97
2023-01-20T22:49:09.504Z,99.94
2023-01-20T22:51:36.861Z,99.93
2023-01-20T22:54:04.289Z,100.00
2023-01-20T22:56:32.149Z,99.96
2023-01-20T22:59:00.659Z,99.96
2023-01-20T23:01:32.448Z,100.00
2023-01-20T23:04:04.023Z,100.00
2023-01-20T23:06:34.943Z,100.00
2023-01-20T23:09:08.982Z,100.00
2023-01-20T23:11:37.883Z,100.00
2023-01-20T23:14:09.173Z,100.00
2023-01-20T23:16:36.761Z,100.00
2023-01-20T23:19:05.238Z,100.00
2023-01-20T23:21:32.733Z,100.00
2023-01-20T23:24:00.489Z,100.00
2023-01-20T23:26:30.000Z,100.00
2023-01-20T23:28:57.961Z,100.00
2023-01-20T23:31:28.147Z,100.00
2023-01-20T23:33:55.919Z,100.00
2023-01-20T23:36:26.008Z,100.00
2023-01-20T23:38:55.490Z,100.00
2023-01-20T23:41:23.753Z,100.00
2023-01-20T23:43:51.830Z,100.00
2023-01-20T23:46:20.825Z,100.00
2023-01-20T23:48:48.412Z,100.00
2023-01-20T23:51:16.450Z,100.00
2023-01-20T23:53:44.136Z,100.00
2023-01-20T23:56:21.197Z,100.00
2023-01-20T23:58:48.956Z,100.00
